createdAt,value
2018-11-29T00:00:23.197Z,93.16
2018-11-29T00:03:53.497Z,93.07
2018-11-29T00:07:23.557Z,92.97
2018-11-29T00:10:53.939Z,92.89
2018-11-29T00:14:24.057Z,92.91
2018-11-29T00:17:54.117Z,92.92
2018-11-29T00:21:24.195Z,92.81
2018-11-29T00:24:54.346Z,92.83
2018-11-29T00:28:24.396Z,92.72
2018-11-29T00:31:54.535Z,92.77
2018-11-29T00:35:24.625Z,92.72
2018-11-29T00:38:54.685Z,92.77
2018-11-29T00:42:24.715Z,92.72
2018-11-29T00:45:54.911Z,92.64
2018-11-29T00:49:24.878Z,92.55
2018-11-29T00:52:54.918Z,92.53
2018-11-29T00:56:24.880Z,92.4
2018-11-29T00:59:55.093Z,92.39
2018-11-29T01:03:25.133Z,92.4
2018-11-29T01:06:55.497Z,92.37
2018-11-29T01:10:25.613Z,92.38
2018-11-29T01:13:55.792Z,92.31
2018-11-29T01:17:25.842Z,92.34
2018-11-29T01:20:55.934Z,92.31
2018-11-29T01:24:26.012Z,92.25
2018-11-29T01:27:56.121Z,92.14
2018-11-29T01:31:26.221Z,92.07
2018-11-29T01:34:56.371Z,92.06
2018-11-29T01:38:26.376Z,91.98
2018-11-29T01:41:56.531Z,91.97
2018-11-29T01:45:26.650Z,91.91
2018-11-29T01:48:56.690Z,91.85
2018-11-29T01:52:26.710Z,91.76
2018-11-29T01:55:56.770Z,91.77
2018-11-29T01:59:26.779Z,91.75
2018-11-29T02:00:17.463Z,91.74
2018-11-29T02:03:47.527Z,91.74
2018-11-29T02:07:17.549Z,91.72
2018-11-29T02:10:51.889Z,91.66
2018-11-29T02:14:21.928Z,91.57
2018-11-29T02:17:52.168Z,91.56
2018-11-29T02:21:22.798Z,91.53
2018-11-29T02:24:52.988Z,91.49
2018-11-29T02:28:22.940Z,91.4
2018-11-29T02:31:52.999Z,91.25
2018-11-29T02:35:23.079Z,91.21
2018-11-29T02:38:53.098Z,91.15
2018-11-29T02:42:23.176Z,91.07
2018-11-29T02:45:53.265Z,91.06
2018-11-29T02:49:23.276Z,91.05
2018-11-29T02:52:53.421Z,91.05
2018-11-29T02:56:23.507Z,90.96
2018-11-29T02:59:53.544Z,90.88
2018-11-29T03:03:23.717Z,90.91
2018-11-29T03:06:53.736Z,90.87
2018-11-29T03:10:43.334Z,90.84
2018-11-29T03:17:11.343Z,90.76
2018-11-29T16:42:24.338Z,80.09
2018-11-29T18:55:25.024Z,79.76
2018-11-29T18:58:55.134Z,79.76
2018-11-29T19:02:25.304Z,79.78
2018-11-29T19:05:55.343Z,79.72
2018-11-29T19:09:25.523Z,79.75
2018-11-29T19:12:57.863Z,79.72
2018-11-29T19:16:27.992Z,79.74
2018-11-29T19:19:58.101Z,79.7
2018-11-29T19:23:28.422Z,79.69
2018-11-29T19:26:58.511Z,79.71
2018-11-29T19:30:29.461Z,79.72
2018-11-29T19:34:01.542Z,79.69
2018-11-29T19:37:32.221Z,79.7
2018-11-29T19:41:02.287Z,79.69
2018-11-29T19:44:32.589Z,79.65
2018-11-29T19:48:03.189Z,79.67
2018-11-29T19:51:33.347Z,79.66
2018-11-29T19:55:03.768Z,79.64
2018-11-29T19:58:34.208Z,79.65
2018-11-29T20:00:16.488Z,79.67
2018-11-29T20:03:46.778Z,79.66
2018-11-29T20:07:16.827Z,79.66
2018-11-29T20:10:46.986Z,79.67
2018-11-29T20:14:17.117Z,79.66
2018-11-29T20:17:47.316Z,79.63
2018-11-29T20:21:17.435Z,79.62
2018-11-29T20:24:47.605Z,79.6
2018-11-29T20:28:17.705Z,79.66
2018-11-29T20:31:48.056Z,79.66
2018-11-29T20:35:18.274Z,79.61
2018-11-29T20:38:48.514Z,79.56
2018-11-29T20:42:18.603Z,79.65
2018-11-29T20:45:51.373Z,79.67
2018-11-29T20:49:21.444Z,79.64
2018-11-29T20:52:52.752Z,79.62
2018-11-29T20:56:22.962Z,79.62
2018-11-29T20:59:53.381Z,79.63
2018-11-29T21:03:23.557Z,79.61
2018-11-29T21:06:53.797Z,79.6
2018-11-29T21:10:24.480Z,79.59
2018-11-29T21:13:54.970Z,79.56
2018-11-29T21:17:25.069Z,79.62
2018-11-29T21:20:55.299Z,79.64
2018-11-29T21:24:25.461Z,79.64
2018-11-29T21:27:55.628Z,79.63
2018-11-29T21:31:25.718Z,79.66
2018-11-29T21:34:55.847Z,79.62
2018-11-29T21:38:26.008Z,79.63
2018-11-29T21:41:56.218Z,79.65
2018-11-29T21:45:26.397Z,79.65
2018-11-29T21:48:56.576Z,79.64
2018-11-29T21:52:26.775Z,79.64
2018-11-29T21:55:56.928Z,79.64
2018-11-29T21:59:27.025Z,79.65
2018-11-29T22:00:18.294Z,79.62
2018-11-29T22:03:48.843Z,79.65
2018-11-29T22:07:57.607Z,79.67
2018-11-29T22:11:27.653Z,79.69
2018-11-29T22:14:57.113Z,79.7
2018-11-29T22:19:31.672Z,79.73
2018-11-29T22:23:01.210Z,79.75
2018-11-29T22:26:31.361Z,79.8
2018-11-29T22:30:01.523Z,79.8
2018-11-29T22:33:31.740Z,79.81
2018-11-29T22:37:02.037Z,79.81
2018-11-29T22:40:32.291Z,79.83
2018-11-29T22:44:02.529Z,79.8
2018-11-29T22:47:32.999Z,79.8
2018-11-29T22:51:02.550Z,79.83
2018-11-29T22:54:32.848Z,79.85
2018-11-29T22:58:03.049Z,79.84
2018-11-29T23:01:33.388Z,79.81
2018-11-29T23:05:04.067Z,79.84
2018-11-29T23:08:58.877Z,79.81
2018-11-29T23:12:28.367Z,79.82
2018-11-29T23:15:58.566Z,79.89
2018-11-29T23:19:28.739Z,79.87
2018-11-29T23:22:58.895Z,79.91
2018-11-29T23:26:28.936Z,79.9
2018-11-29T23:29:59.074Z,79.88
2018-11-29T23:33:29.315Z,79.97
2018-11-29T23:36:59.580Z,80
2018-11-29T23:40:29.784Z,80.02
2018-11-29T23:44:00.066Z,80
2018-11-29T23:47:30.253Z,80
2018-11-29T23:51:00.373Z,80.03
2018-11-29T23:54:30.583Z,80.04
2018-11-29T23:58:00.752Z,80.04
